createdAt,value
2022-12-06T00:04:39.986Z,100842.84
2022-12-06T00:11:53.665Z,100856.66
2022-12-06T00:15:05.238Z,100843.75
2022-12-06T00:17:42.902Z,100850.72
2022-12-06T00:20:13.752Z,100849.84
2022-12-06T00:23:15.675Z,100848.06
2022-12-06T00:25:43.436Z,100853.34
2022-12-06T00:29:20.114Z,100851.63
2022-12-06T00:31:50.547Z,100852.38
2022-12-06T00:34:49.181Z,100840.16
2022-12-06T00:37:38.607Z,100840.94
2022-12-06T00:40:23.206Z,100848.78
2022-12-06T00:43:15.014Z,100837.34
2022-12-06T00:46:37.881Z,100831.16
2022-12-06T00:49:14.706Z,100831.03
2022-12-06T00:52:47.122Z,100828.25
2022-12-06T00:55:37.781Z,100835.31
2022-12-06T00:58:23.030Z,100817.94
2022-12-06T01:01:12.149Z,100818.75
2022-12-06T01:04:02.276Z,100817.66
2022-12-06T01:06:51.337Z,100820.16
2022-12-06T01:09:35.595Z,100817.56
2022-12-06T01:12:18.458Z,100822.59
2022-12-06T01:15:13.713Z,100818.22
2022-12-06T01:18:41.856Z,100819.19
2022-12-06T01:20:47.620Z,100822.97
2022-12-06T01:23:21.515Z,100822.19
2022-12-06T01:25:54.098Z,100835.13
2022-12-06T01:28:36.949Z,100837.75
2022-12-06T01:31:15.143Z,100828.34
2022-12-06T01:33:51.345Z,100824.84
2022-12-06T01:36:28.210Z,100828.41
2022-12-06T01:39:09.378Z,100824.94
2022-12-06T01:41:47.504Z,100824.94
2022-12-06T01:44:42.378Z,100831.19
2022-12-06T01:47:31.870Z,100839.88
2022-12-06T01:50:13.415Z,100845.91
2022-12-06T01:53:20.232Z,100837.25
2022-12-06T01:55:56.593Z,100826.88
2022-12-06T01:58:34.563Z,100836.16
2022-12-06T02:01:19.451Z,100824.03
2022-12-06T02:04:04.214Z,100825.81
2022-12-06T02:07:26.119Z,100823.97
2022-12-06T02:09:43.321Z,100824.19
2022-12-06T02:12:37.867Z,100830.47
2022-12-06T02:15:17.232Z,100829.47
2022-12-06T02:18:21.167Z,100832.28
2022-12-06T02:21:24.769Z,100818.94
2022-12-06T02:24:30.495Z,100828.59
2022-12-06T02:27:36.851Z,100825.09
2022-12-06T02:31:14.738Z,100827.88
2022-12-06T02:38:24.973Z,100811.13
2022-12-06T02:41:21.406Z,100814.75
2022-12-06T02:52:01.355Z,100811.19
2022-12-06T03:07:20.533Z,100815.41
2022-12-06T03:10:39.266Z,100798.09
2022-12-06T03:14:26.511Z,100797.97
2022-12-06T03:17:46.540Z,100805.16
2022-12-06T03:21:16.204Z,100799.19
2022-12-06T03:31:38.486Z,100779.69
2022-12-06T03:35:12.579Z,100779.75
2022-12-06T03:42:51.707Z,100777.28
2022-12-06T03:45:43.509Z,100780.06
2022-12-06T03:50:00.545Z,100791.19
2022-12-06T03:54:36.329Z,100782.22
2022-12-06T04:00:21.906Z,100790.00
2022-12-06T04:03:22.492Z,100788.34
2022-12-06T04:07:18.265Z,100776.31
2022-12-06T04:18:15.168Z,100791.16
2022-12-06T04:21:43.776Z,100786.53
2022-12-06T04:27:58.600Z,100779.81
2022-12-06T04:31:45.977Z,100781.72
2022-12-06T04:35:01.417Z,100772.53
2022-12-06T04:38:15.210Z,100772.09
2022-12-06T04:41:39.326Z,100763.44
2022-12-06T04:45:32.609Z,100767.63
2022-12-06T04:48:24.333Z,100766.63
2022-12-06T04:51:37.593Z,100770.00
2022-12-06T04:54:54.418Z,100771.00
2022-12-06T04:58:15.566Z,100783.22
2022-12-06T05:01:23.010Z,100782.16
2022-12-06T05:04:27.002Z,100784.78
2022-12-06T05:07:35.587Z,100774.31
2022-12-06T05:21:55.413Z,100788.81
2022-12-06T05:24:49.814Z,100784.44
2022-12-06T05:27:35.691Z,100794.56
2022-12-06T05:30:04.511Z,100784.16
2022-12-06T05:32:32.305Z,100785.53
2022-12-06T05:34:59.896Z,100785.53
2022-12-06T05:37:27.518Z,100787.72
2022-12-06T05:39:55.144Z,100775.69
2022-12-06T05:42:22.825Z,100784.78
2022-12-06T05:44:50.455Z,100777.94
2022-12-06T05:47:18.082Z,100789.09
2022-12-06T05:49:45.714Z,100785.75
2022-12-06T05:52:13.311Z,100793.63
2022-12-06T05:54:41.042Z,100795.06
2022-12-06T05:57:08.624Z,100796.44
2022-12-06T05:59:36.253Z,100790.91
2022-12-06T06:02:03.959Z,100795.75
2022-12-06T06:04:36.304Z,100792.13
2022-12-06T06:21:28.877Z,100799.34
2022-12-06T06:23:57.519Z,100799.03
2022-12-06T06:26:25.112Z,100796.09
2022-12-06T06:28:52.623Z,100802.28
2022-12-06T06:31:20.672Z,100799.97
2022-12-06T06:33:51.147Z,100796.91
2022-12-06T06:36:19.005Z,100808.47
2022-12-06T06:38:46.624Z,100803.94
2022-12-06T06:41:14.032Z,100819.00
2022-12-06T06:43:41.861Z,100822.16
2022-12-06T06:46:10.689Z,100835.53
2022-12-06T06:48:39.736Z,100824.97
2022-12-06T06:51:10.815Z,100834.16
2022-12-06T06:53:39.364Z,100840.56
2022-12-06T06:56:07.763Z,100837.59
2022-12-06T06:58:35.710Z,100834.81
2022-12-06T07:01:07.092Z,100841.69
2022-12-06T07:03:35.387Z,100849.22
2022-12-06T07:06:07.590Z,100857.78
2022-12-06T07:08:35.472Z,100852.50
2022-12-06T07:11:02.921Z,100861.66
2022-12-06T07:13:31.474Z,100859.00
2022-12-06T07:15:59.241Z,100861.91
2022-12-06T07:18:26.797Z,100856.75
2022-12-06T07:21:06.802Z,100859.28
2022-12-06T07:23:36.206Z,100864.44
2022-12-06T07:26:16.769Z,100857.47
2022-12-06T07:28:45.640Z,100864.34
2022-12-06T07:31:24.649Z,100862.16
2022-12-06T07:33:57.949Z,100868.63
2022-12-06T07:36:26.775Z,100865.25
2022-12-06T07:38:56.150Z,100868.63
2022-12-06T07:41:44.370Z,100860.78
2022-12-06T07:44:39.619Z,100865.22
2022-12-06T07:47:07.091Z,100869.84
2022-12-06T07:49:34.676Z,100868.91
2022-12-06T07:52:02.496Z,100862.06
2022-12-06T07:54:29.990Z,100861.22
2022-12-06T07:56:57.799Z,100867.44
2022-12-06T07:59:27.612Z,100877.06
2022-12-06T08:01:55.204Z,100875.09
2022-12-06T08:04:22.833Z,100870.81
2022-12-06T08:06:50.836Z,100872.94
2022-12-06T08:09:18.571Z,100865.78
2022-12-06T08:11:46.318Z,100873.84
2022-12-06T08:14:14.818Z,100883.84
2022-12-06T08:16:42.396Z,100889.47
2022-12-06T08:19:10.170Z,100881.13
2022-12-06T08:21:37.685Z,100883.94
2022-12-06T08:24:05.354Z,100883.47
2022-12-06T08:26:32.858Z,100887.28
2022-12-06T08:29:01.649Z,100891.97
2022-12-06T08:31:36.877Z,100887.84
2022-12-06T08:34:04.927Z,100891.03
2022-12-06T08:36:32.471Z,100884.81
2022-12-06T08:39:01.248Z,100891.78
2022-12-06T08:41:47.291Z,100894.75
2022-12-06T08:44:16.015Z,100901.09
2022-12-06T08:46:43.742Z,100903.88
2022-12-06T08:49:12.991Z,100897.03
2022-12-06T08:51:40.952Z,100902.56
2022-12-06T08:54:12.270Z,100897.13
2022-12-06T08:56:39.881Z,100903.34
2022-12-06T08:59:08.500Z,100907.53
2022-12-06T09:01:38.278Z,100905.16
2022-12-06T09:04:08.930Z,100909.84
2022-12-06T09:06:38.207Z,100909.31
2022-12-06T09:09:06.777Z,100906.56
2022-12-06T09:11:34.512Z,100896.44
2022-12-06T09:14:02.146Z,100908.06
2022-12-06T09:16:29.857Z,100909.75
2022-12-06T09:18:57.701Z,100918.91
2022-12-06T09:21:30.633Z,100924.44
2022-12-06T09:23:59.206Z,100926.09
2022-12-06T09:26:28.079Z,100933.66
2022-12-06T09:28:56.873Z,100927.84
2022-12-06T09:31:25.328Z,100931.38
2022-12-06T09:33:52.988Z,100923.50
2022-12-06T09:36:52.130Z,100921.72
2022-12-06T09:39:27.586Z,100929.69
2022-12-06T09:42:00.867Z,100918.72
2022-12-06T09:44:55.322Z,100918.06
2022-12-06T09:47:52.383Z,100919.69
2022-12-06T09:51:03.525Z,100916.31
2022-12-06T09:53:37.111Z,100917.22
2022-12-06T09:56:16.943Z,100901.53
2022-12-06T09:58:54.387Z,100908.47
2022-12-06T10:01:48.139Z,100902.94
2022-12-06T10:04:49.002Z,100913.31
2022-12-06T10:07:30.625Z,100907.75
2022-12-06T10:10:19.937Z,100899.94
2022-12-06T10:12:47.622Z,100904.53
2022-12-06T10:15:27.203Z,100901.88
2022-12-06T10:18:05.367Z,100896.50
2022-12-06T10:20:47.142Z,100892.28
2022-12-06T10:23:36.252Z,100895.84
2022-12-06T10:26:19.519Z,100894.06
2022-12-06T10:29:12.697Z,100884.53
2022-12-06T10:32:03.726Z,100881.44
2022-12-06T10:34:55.673Z,100882.38
2022-12-06T10:38:00.758Z,100879.13
2022-12-06T10:40:37.148Z,100871.31
2022-12-06T10:43:29.544Z,100874.00
2022-12-06T10:46:37.059Z,100870.22
2022-12-06T10:49:18.194Z,100874.59
2022-12-06T10:51:55.066Z,100864.19
2022-12-06T10:54:31.801Z,100875.81
2022-12-06T10:57:04.940Z,100868.72
2022-12-06T10:59:51.875Z,100868.72
2022-12-06T11:02:46.241Z,100862.84
2022-12-06T11:05:26.590Z,100852.28
2022-12-06T11:08:02.822Z,100856.84
2022-12-06T11:10:34.809Z,100860.69
2022-12-06T11:13:24.729Z,100856.97
2022-12-06T11:15:59.767Z,100867.72
2022-12-06T11:18:30.085Z,100856.47
2022-12-06T11:21:14.571Z,100854.66
2022-12-06T11:24:03.457Z,100861.72
2022-12-06T11:26:52.179Z,100861.66
2022-12-06T11:29:20.100Z,100841.59
2022-12-06T11:31:52.209Z,100847.59
2022-12-06T11:34:29.194Z,100847.50
2022-12-06T11:37:00.602Z,100839.81
2022-12-06T11:39:30.662Z,100840.78
2022-12-06T11:42:01.704Z,100829.38
2022-12-06T11:44:52.685Z,100830.25
2022-12-06T11:47:22.976Z,100837.25
2022-12-06T11:49:54.181Z,100836.34
2022-12-06T11:52:34.537Z,100831.97
2022-12-06T11:55:16.076Z,100817.97
2022-12-06T11:58:06.834Z,100824.09
2022-12-06T12:00:37.896Z,100829.38
2022-12-06T12:03:30.321Z,100820.59
2022-12-06T12:06:19.141Z,100820.59
2022-12-06T12:08:52.813Z,100812.72
2022-12-06T12:11:23.649Z,100816.19
2022-12-06T12:13:59.530Z,100809.19
2022-12-06T12:16:33.645Z,100814.44
2022-12-06T12:19:18.498Z,100802.22
2022-12-06T12:21:50.933Z,100804.88
2022-12-06T12:24:56.570Z,100803.03
2022-12-06T12:27:41.091Z,100805.66
2022-12-06T12:30:36.416Z,100794.38
2022-12-06T12:33:06.952Z,100796.94
2022-12-06T12:35:45.997Z,100783.00
2022-12-06T12:38:18.985Z,100786.47
2022-12-06T12:40:50.173Z,100778.56
2022-12-06T12:43:25.330Z,100778.56
2022-12-06T12:46:03.401Z,100775.94
2022-12-06T12:48:31.138Z,100771.56
2022-12-06T12:51:02.025Z,100771.56
2022-12-06T12:53:41.979Z,100766.34
2022-12-06T18:19:47.933Z,100741.00
2022-12-06T18:22:15.763Z,100738.53
2022-12-06T18:24:44.891Z,100734.34
2022-12-06T18:27:12.865Z,100734.59
2022-12-06T18:29:40.568Z,100724.97
2022-12-06T18:32:15.677Z,100722.59
2022-12-06T18:34:45.171Z,100726.06
2022-12-06T18:37:12.784Z,100730.50
2022-12-06T18:39:40.524Z,100737.25
2022-12-06T18:42:08.160Z,100733.72
2022-12-06T18:44:35.661Z,100727.66
2022-12-06T18:47:03.236Z,100742.66
2022-12-06T18:49:30.805Z,100745.34
2022-12-06T18:51:58.347Z,100746.91
2022-12-06T18:54:34.873Z,100749.59
2022-12-06T18:57:02.531Z,100752.97
2022-12-06T18:59:31.288Z,100745.47
2022-12-06T19:02:05.219Z,100742.28
2022-12-06T19:04:35.426Z,100746.88
2022-12-06T19:07:02.977Z,100747.56
2022-12-06T19:09:36.552Z,100741.16
2022-12-06T19:12:05.019Z,100749.28
2022-12-06T19:14:32.486Z,100751.50
2022-12-06T19:17:00.119Z,100754.03
2022-12-06T19:19:28.201Z,100764.00
2022-12-06T21:19:55.455Z,100692.88
2022-12-06T21:26:40.416Z,100721.56
